sensor_id;sensor_type;location;lat;lon;timestamp;pressure;altitude;pressure_sealevel;temperature
11321;BMP180;5715;48.234;14.320;2022-08-19T00:02:16;97889.00;;;25.30
11321;BMP180;5715;48.234;14.320;2022-08-19T00:05:04;97906.00;;;25.20
11321;BMP180;5715;48.234;14.320;2022-08-19T00:07:52;97910.00;;;25.10
11321;BMP180;5715;48.234;14.320;2022-08-19T00:10:39;97914.00;;;25.20
11321;BMP180;5715;48.234;14.320;2022-08-19T00:13:27;97917.00;;;25.20
11321;BMP180;5715;48.234;14.320;2022-08-19T00:16:17;97915.00;;;25.20
11321;BMP180;5715;48.234;14.320;2022-08-19T00:19:14;97922.00;;;25.10
11321;BMP180;5715;48.234;14.320;2022-08-19T00:22:01;97934.00;;;24.90
11321;BMP180;5715;48.234;14.320;2022-08-19T00:24:49;97933.00;;;25.00
11321;BMP180;5715;48.234;14.320;2022-08-19T00:27:38;97932.00;;;25.00
11321;BMP180;5715;48.234;14.320;2022-08-19T00:30:26;97923.00;;;24.90
11321;BMP180;5715;48.234;14.320;2022-08-19T00:33:17;97927.00;;;24.90
11321;BMP180;5715;48.234;14.320;2022-08-19T00:36:08;97940.00;;;24.90
11321;BMP180;5715;48.234;14.320;2022-08-19T00:38:56;97938.00;;;25.00
11321;BMP180;5715;48.234;14.320;2022-08-19T00:41:47;97934.00;;;24.90
11321;BMP180;5715;48.234;14.320;2022-08-19T00:44:36;97949.00;;;25.00
11321;BMP180;5715;48.234;14.320;2022-08-19T00:47:24;97953.00;;;24.90
11321;BMP180;5715;48.234;14.320;2022-08-19T00:50:17;97950.00;;;25.00
11321;BMP180;5715;48.234;14.320;2022-08-19T00:53:06;97950.00;;;25.00
11321;BMP180;5715;48.234;14.320;2022-08-19T00:55:58;97961.00;;;25.10
11321;BMP180;5715;48.234;14.320;2022-08-19T00:58:46;97958.00;;;25.10
11321;BMP180;5715;48.234;14.320;2022-08-19T01:01:38;97963.00;;;25.10
11321;BMP180;5715;48.234;14.320;2022-08-19T01:04:27;97975.00;;;25.20
11321;BMP180;5715;48.234;14.320;2022-08-19T01:07:15;97977.00;;;25.00
11321;BMP180;5715;48.234;14.320;2022-08-19T01:10:11;97975.00;;;24.90
11321;BMP180;5715;48.234;14.320;2022-08-19T01:13:01;97976.00;;;25.00
11321;BMP180;5715;48.234;14.320;2022-08-19T01:16:09;97968.00;;;24.90
11321;BMP180;5715;48.234;14.320;2022-08-19T01:18:58;97958.00;;;24.90
11321;BMP180;5715;48.234;14.320;2022-08-19T01:21:59;97951.00;;;24.90
11321;BMP180;5715;48.234;14.320;2022-08-19T01:25:01;97949.00;;;24.80
11321;BMP180;5715;48.234;14.320;2022-08-19T01:28:01;97937.00;;;24.80
11321;BMP180;5715;48.234;14.320;2022-08-19T01:30:57;97945.00;;;24.80
11321;BMP180;5715;48.234;14.320;2022-08-19T01:33:45;97939.00;;;24.80
11321;BMP180;5715;48.234;14.320;2022-08-19T01:36:44;97940.00;;;25.00
11321;BMP180;5715;48.234;14.320;2022-08-19T01:39:39;97945.00;;;24.80
11321;BMP180;5715;48.234;14.320;2022-08-19T01:42:27;97942.00;;;24.90
11321;BMP180;5715;48.234;14.320;2022-08-19T01:45:20;97947.00;;;24.80
11321;BMP180;5715;48.234;14.320;2022-08-19T01:48:08;97948.00;;;24.80
11321;BMP180;5715;48.234;14.320;2022-08-19T01:50:56;97953.00;;;24.90
11321;BMP180;5715;48.234;14.320;2022-08-19T01:53:49;97954.00;;;25.00
11321;BMP180;5715;48.234;14.320;2022-08-19T01:56:38;97945.00;;;24.90
11321;BMP180;5715;48.234;14.320;2022-08-19T01:59:27;97943.00;;;24.90
11321;BMP180;5715;48.234;14.320;2022-08-19T02:02:14;97938.00;;;25.00
11321;BMP180;5715;48.234;14.320;2022-08-19T02:05:03;97919.00;;;24.80
11321;BMP180;5715;48.234;14.320;2022-08-19T02:07:51;97910.00;;;24.60
11321;BMP180;5715;48.234;14.320;2022-08-19T02:10:42;97897.00;;;24.40
11321;BMP180;5715;48.234;14.320;2022-08-19T02:13:32;97901.00;;;24.60
11321;BMP180;5715;48.234;14.320;2022-08-19T02:16:22;97905.00;;;24.60
11321;BMP180;5715;48.234;14.320;2022-08-19T02:19:09;97897.00;;;24.70
11321;BMP180;5715;48.234;14.320;2022-08-19T02:21:57;97891.00;;;24.80
11321;BMP180;5715;48.234;14.320;2022-08-19T02:24:45;97882.00;;;24.90
11321;BMP180;5715;48.234;14.320;2022-08-19T02:27:33;97892.00;;;25.00
11321;BMP180;5715;48.234;14.320;2022-08-19T02:30:21;97916.00;;;24.90
11321;BMP180;5715;48.234;14.320;2022-08-19T02:33:09;97944.00;;;25.00
11321;BMP180;5715;48.234;14.320;2022-08-19T02:35:56;97956.00;;;25.10
11321;BMP180;5715;48.234;14.320;2022-08-19T02:38:45;97915.00;;;24.90
11321;BMP180;5715;48.234;14.320;2022-08-19T02:41:41;97942.00;;;25.20
11321;BMP180;5715;48.234;14.320;2022-08-19T02:44:29;97946.00;;;25.20
11321;BMP180;5715;48.234;14.320;2022-08-19T02:47:19;97936.00;;;25.20
11321;BMP180;5715;48.234;14.320;2022-08-19T02:50:07;97936.00;;;25.30
11321;BMP180;5715;48.234;14.320;2022-08-19T02:52:55;97938.00;;;25.10
11321;BMP180;5715;48.234;14.320;2022-08-19T02:55:46;97941.00;;;25.10
11321;BMP180;5715;48.234;14.320;2022-08-19T02:58:34;97931.00;;;25.00
11321;BMP180;5715;48.234;14.320;2022-08-19T03:01:30;97939.00;;;25.10
11321;BMP180;5715;48.234;14.320;2022-08-19T03:04:18;97944.00;;;25.10
11321;BMP180;5715;48.234;14.320;2022-08-19T03:07:06;97949.00;;;25.10
11321;BMP180;5715;48.234;14.320;2022-08-19T03:09:57;97974.00;;;25.10
11321;BMP180;5715;48.234;14.320;2022-08-19T03:12:45;97974.00;;;25.10
11321;BMP180;5715;48.234;14.320;2022-08-19T03:15:33;97974.00;;;25.00
11321;BMP180;5715;48.234;14.320;2022-08-19T03:18:21;97971.00;;;25.10
11321;BMP180;5715;48.234;14.320;2022-08-19T03:21:22;97968.00;;;25.20
11321;BMP180;5715;48.234;14.320;2022-08-19T03:24:12;97961.00;;;25.20
11321;BMP180;5715;48.234;14.320;2022-08-19T03:27:00;97971.00;;;25.00
11321;BMP180;5715;48.234;14.320;2022-08-19T03:29:48;97971.00;;;25.00
11321;BMP180;5715;48.234;14.320;2022-08-19T03:32:38;97976.00;;;25.00
11321;BMP180;5715;48.234;14.320;2022-08-19T03:35:31;97982.00;;;24.80
11321;BMP180;5715;48.234;14.320;2022-08-19T03:38:19;97983.00;;;24.60
11321;BMP180;5715;48.234;14.320;2022-08-19T03:41:21;97972.00;;;24.50
11321;BMP180;5715;48.234;14.320;2022-08-19T03:44:09;97966.00;;;24.50
11321;BMP180;5715;48.234;14.320;2022-08-19T03:47:05;97974.00;;;24.40
11321;BMP180;5715;48.234;14.320;2022-08-19T03:49:52;97992.00;;;24.30
11321;BMP180;5715;48.234;14.320;2022-08-19T03:52:40;97996.00;;;24.30
11321;BMP180;5715;48.234;14.320;2022-08-19T03:55:41;97998.00;;;24.30
11321;BMP180;5715;48.234;14.320;2022-08-19T03:58:29;97994.00;;;24.40
11321;BMP180;5715;48.234;14.320;2022-08-19T04:01:21;97996.00;;;24.40
11321;BMP180;5715;48.234;14.320;2022-08-19T04:04:22;97998.00;;;24.50
11321;BMP180;5715;48.234;14.320;2022-08-19T04:07:13;98016.00;;;24.60
11321;BMP180;5715;48.234;14.320;2022-08-19T04:10:05;98027.00;;;24.60
11321;BMP180;5715;48.234;14.320;2022-08-19T04:12:56;98047.00;;;24.70
11321;BMP180;5715;48.234;14.320;2022-08-19T04:15:45;98049.00;;;24.90
11321;BMP180;5715;48.234;14.320;2022-08-19T04:18:34;98068.00;;;25.00
11321;BMP180;5715;48.234;14.320;2022-08-19T04:21:26;98083.00;;;25.20
11321;BMP180;5715;48.234;14.320;2022-08-19T04:24:17;98094.00;;;25.20
11321;BMP180;5715;48.234;14.320;2022-08-19T04:27:05;98099.00;;;25.30
11321;BMP180;5715;48.234;14.320;2022-08-19T04:29:53;98107.00;;;25.30
11321;BMP180;5715;48.234;14.320;2022-08-19T04:32:40;98106.00;;;25.40
11321;BMP180;5715;48.234;14.320;2022-08-19T04:35:43;98101.00;;;25.50
11321;BMP180;5715;48.234;14.320;2022-08-19T04:38:31;98107.00;;;25.40
11321;BMP180;5715;48.234;14.320;2022-08-19T04:41:18;98114.00;;;25.60
11321;BMP180;5715;48.234;14.320;2022-08-19T04:44:25;98125.00;;;25.70
11321;BMP180;5715;48.234;14.320;2022-08-19T04:47:13;98131.00;;;25.90
11321;BMP180;5715;48.234;14.320;2022-08-19T04:50:00;98139.00;;;25.80
11321;BMP180;5715;48.234;14.320;2022-08-19T04:52:51;98142.00;;;25.90
11321;BMP180;5715;48.234;14.320;2022-08-19T04:55:41;98139.00;;;25.90
11321;BMP180;5715;48.234;14.320;2022-08-19T04:58:30;98135.00;;;26.20
11321;BMP180;5715;48.234;14.320;2022-08-19T05:01:22;98118.00;;;26.20
11321;BMP180;5715;48.234;14.320;2022-08-19T05:04:10;98104.00;;;26.20
11321;BMP180;5715;48.234;14.320;2022-08-19T05:06:57;98085.00;;;26.10
11321;BMP180;5715;48.234;14.320;2022-08-19T05:09:47;98073.00;;;25.80
11321;BMP180;5715;48.234;14.320;2022-08-19T05:12:45;98080.00;;;25.90
11321;BMP180;5715;48.234;14.320;2022-08-19T05:15:33;98079.00;;;25.80
11321;BMP180;5715;48.234;14.320;2022-08-19T05:18:20;98068.00;;;26.10
11321;BMP180;5715;48.234;14.320;2022-08-19T05:21:29;98059.00;;;26.10
11321;BMP180;5715;48.234;14.320;2022-08-19T05:24:36;98064.00;;;26.00
11321;BMP180;5715;48.234;14.320;2022-08-19T05:27:44;98089.00;;;25.90
11321;BMP180;5715;48.234;14.320;2022-08-19T05:30:31;98078.00;;;25.70
11321;BMP180;5715;48.234;14.320;2022-08-19T05:33:33;98058.00;;;26.00
11321;BMP180;5715;48.234;14.320;2022-08-19T05:36:21;98047.00;;;25.90
11321;BMP180;5715;48.234;14.320;2022-08-19T05:39:12;98035.00;;;25.90
11321;BMP180;5715;48.234;14.320;2022-08-19T05:42:05;98034.00;;;25.90
11321;BMP180;5715;48.234;14.320;2022-08-19T05:44:54;98028.00;;;25.90
11321;BMP180;5715;48.234;14.320;2022-08-19T05:47:43;98010.00;;;26.00
11321;BMP180;5715;48.234;14.320;2022-08-19T05:50:32;98013.00;;;26.10
11321;BMP180;5715;48.234;14.320;2022-08-19T05:53:20;98013.00;;;26.20
11321;BMP180;5715;48.234;14.320;2022-08-19T05:56:12;98004.00;;;26.20
11321;BMP180;5715;48.234;14.320;2022-08-19T05:59:05;98009.00;;;26.30
11321;BMP180;5715;48.234;14.320;2022-08-19T06:01:58;98002.00;;;26.40
11321;BMP180;5715;48.234;14.320;2022-08-19T06:04:46;97991.00;;;26.60
11321;BMP180;5715;48.234;14.320;2022-08-19T06:07:38;97967.00;;;26.30
11321;BMP180;5715;48.234;14.320;2022-08-19T06:10:27;97976.00;;;26.60
11321;BMP180;5715;48.234;14.320;2022-08-19T06:13:15;97989.00;;;26.80
11321;BMP180;5715;48.234;14.320;2022-08-19T06:16:02;98001.00;;;27.20
11321;BMP180;5715;48.234;14.320;2022-08-19T06:18:54;98004.00;;;27.40
11321;BMP180;5715;48.234;14.320;2022-08-19T06:21:45;97997.00;;;27.80
11321;BMP180;5715;48.234;14.320;2022-08-19T06:24:34;97994.00;;;27.90
11321;BMP180;5715;48.234;14.320;2022-08-19T06:27:23;97995.00;;;27.90
11321;BMP180;5715;48.234;14.320;2022-08-19T06:30:11;97998.00;;;28.30
11321;BMP180;5715;48.234;14.320;2022-08-19T06:32:59;98005.00;;;28.70
11321;BMP180;5715;48.234;14.320;2022-08-19T06:35:47;98015.00;;;28.90
11321;BMP180;5715;48.234;14.320;2022-08-19T06:38:34;98022.00;;;29.10
11321;BMP180;5715;48.234;14.320;2022-08-19T06:41:22;98030.00;;;29.40
11321;BMP180;5715;48.234;14.320;2022-08-19T06:44:10;98037.00;;;29.70
11321;BMP180;5715;48.234;14.320;2022-08-19T06:47:02;98063.00;;;29.60
11321;BMP180;5715;48.234;14.320;2022-08-19T06:50:01;98062.00;;;29.40
11321;BMP180;5715;48.234;14.320;2022-08-19T06:52:52;98059.00;;;29.30
11321;BMP180;5715;48.234;14.320;2022-08-19T06:55:40;98058.00;;;29.60
11321;BMP180;5715;48.234;14.320;2022-08-19T06:58:31;98055.00;;;29.90
11321;BMP180;5715;48.234;14.320;2022-08-19T07:01:22;98057.00;;;30.00
11321;BMP180;5715;48.234;14.320;2022-08-19T07:04:10;98054.00;;;30.20
11321;BMP180;5715;48.234;14.320;2022-08-19T07:07:05;98060.00;;;30.20
11321;BMP180;5715;48.234;14.320;2022-08-19T07:10:07;98072.00;;;30.20
11321;BMP180;5715;48.234;14.320;2022-08-19T07:12:54;98084.00;;;30.20
11321;BMP180;5715;48.234;14.320;2022-08-19T07:15:42;98080.00;;;30.50
11321;BMP180;5715;48.234;14.320;2022-08-19T07:18:29;98068.00;;;30.30
11321;BMP180;5715;48.234;14.320;2022-08-19T07:21:25;98059.00;;;30.60
11321;BMP180;5715;48.234;14.320;2022-08-19T07:24:16;98075.00;;;30.70
11321;BMP180;5715;48.234;14.320;2022-08-19T07:27:06;98081.00;;;30.50
11321;BMP180;5715;48.234;14.320;2022-08-19T07:30:03;98099.00;;;30.40
11321;BMP180;5715;48.234;14.320;2022-08-19T07:32:51;98084.00;;;30.20
11321;BMP180;5715;48.234;14.320;2022-08-19T07:35:39;98072.00;;;30.00
11321;BMP180;5715;48.234;14.320;2022-08-19T07:38:27;98083.00;;;30.00
11321;BMP180;5715;48.234;14.320;2022-08-19T07:41:20;98078.00;;;30.20
11321;BMP180;5715;48.234;14.320;2022-08-19T07:44:09;98079.00;;;30.20
11321;BMP180;5715;48.234;14.320;2022-08-19T07:46:59;98070.00;;;30.10
11321;BMP180;5715;48.234;14.320;2022-08-19T07:49:47;98066.00;;;30.40
11321;BMP180;5715;48.234;14.320;2022-08-19T07:52:37;98048.00;;;30.10
11321;BMP180;5715;48.234;14.320;2022-08-19T07:55:26;98041.00;;;29.90
11321;BMP180;5715;48.234;14.320;2022-08-19T07:58:36;98039.00;;;30.20
11321;BMP180;5715;48.234;14.320;2022-08-19T08:01:26;98043.00;;;30.40
11321;BMP180;5715;48.234;14.320;2022-08-19T08:04:16;98049.00;;;30.30
11321;BMP180;5715;48.234;14.320;2022-08-19T08:07:22;98043.00;;;30.60
11321;BMP180;5715;48.234;14.320;2022-08-19T08:10:32;98048.00;;;30.90
11321;BMP180;5715;48.234;14.320;2022-08-19T08:13:20;98050.00;;;30.90
11321;BMP180;5715;48.234;14.320;2022-08-19T08:16:08;98046.00;;;30.90
11321;BMP180;5715;48.234;14.320;2022-08-19T08:19:00;98038.00;;;31.30
11321;BMP180;5715;48.234;14.320;2022-08-19T08:21:50;98042.00;;;31.40
11321;BMP180;5715;48.234;14.320;2022-08-19T08:24:37;98029.00;;;31.30
11321;BMP180;5715;48.234;14.320;2022-08-19T08:27:26;98012.00;;;31.10
11321;BMP180;5715;48.234;14.320;2022-08-19T08:30:23;98008.00;;;31.70
11321;BMP180;5715;48.234;14.320;2022-08-19T08:33:23;98008.00;;;32.00
11321;BMP180;5715;48.234;14.320;2022-08-19T08:36:21;98015.00;;;32.70
11321;BMP180;5715;48.234;14.320;2022-08-19T08:39:10;98008.00;;;31.90
11321;BMP180;5715;48.234;14.320;2022-08-19T08:45:12;97979.00;;;33.00
11321;BMP180;5715;48.234;14.320;2022-08-19T08:48:22;97983.00;;;33.50
11321;BMP180;5715;48.234;14.320;2022-08-19T08:51:27;97991.00;;;33.50
11321;BMP180;5715;48.234;14.320;2022-08-19T08:54:25;97986.00;;;32.20
11321;BMP180;5715;48.234;14.320;2022-08-19T09:00:32;97979.00;;;32.10
11321;BMP180;5715;48.234;14.320;2022-08-19T09:03:26;97993.00;;;32.40
11321;BMP180;5715;48.234;14.320;2022-08-19T09:06:37;97992.00;;;32.30
11321;BMP180;5715;48.234;14.320;2022-08-19T09:09:40;97989.00;;;32.10
11321;BMP180;5715;48.234;14.320;2022-08-19T09:13:04;97985.00;;;32.70
11321;BMP180;5715;48.234;14.320;2022-08-19T09:16:03;97995.00;;;32.90
11321;BMP180;5715;48.234;14.320;2022-08-19T09:18:57;97985.00;;;31.90
11321;BMP180;5715;48.234;14.320;2022-08-19T09:21:46;97992.00;;;32.00
11321;BMP180;5715;48.234;14.320;2022-08-19T09:24:33;98007.00;;;32.00
11321;BMP180;5715;48.234;14.320;2022-08-19T09:27:24;98006.00;;;32.30
11321;BMP180;5715;48.234;14.320;2022-08-19T09:30:39;98005.00;;;32.50
11321;BMP180;5715;48.234;14.320;2022-08-19T09:33:27;98004.00;;;32.70
11321;BMP180;5715;48.234;14.320;2022-08-19T09:36:20;98013.00;;;32.70
11321;BMP180;5715;48.234;14.320;2022-08-19T09:39:21;98015.00;;;32.50
11321;BMP180;5715;48.234;14.320;2022-08-19T09:42:09;98023.00;;;33.40
11321;BMP180;5715;48.234;14.320;2022-08-19T09:45:19;98025.00;;;33.60
11321;BMP180;5715;48.234;14.320;2022-08-19T09:48:08;98035.00;;;34.00
11321;BMP180;5715;48.234;14.320;2022-08-19T09:51:26;98038.00;;;33.70
11321;BMP180;5715;48.234;14.320;2022-08-19T09:54:15;98029.00;;;34.00
11321;BMP180;5715;48.234;14.320;2022-08-19T09:57:09;98040.00;;;34.00
11321;BMP180;5715;48.234;14.320;2022-08-19T09:59:57;98047.00;;;34.00
11321;BMP180;5715;48.234;14.320;2022-08-19T10:02:45;98048.00;;;34.10
11321;BMP180;5715;48.234;14.320;2022-08-19T10:05:33;98033.00;;;34.30
11321;BMP180;5715;48.234;14.320;2022-08-19T10:08:36;98009.00;;;34.60
11321;BMP180;5715;48.234;14.320;2022-08-19T10:11:40;98012.00;;;34.80
11321;BMP180;5715;48.234;14.320;2022-08-19T10:14:38;98022.00;;;34.10
11321;BMP180;5715;48.234;14.320;2022-08-19T10:17:27;98040.00;;;34.00
11321;BMP180;5715;48.234;14.320;2022-08-19T10:20:19;98025.00;;;33.60
11321;BMP180;5715;48.234;14.320;2022-08-19T10:23:07;98012.00;;;33.40
11321;BMP180;5715;48.234;14.320;2022-08-19T10:26:00;98009.00;;;33.40
11321;BMP180;5715;48.234;14.320;2022-08-19T10:28:49;98009.00;;;33.70
11321;BMP180;5715;48.234;14.320;2022-08-19T10:31:37;97993.00;;;33.70
11321;BMP180;5715;48.234;14.320;2022-08-19T10:34:45;97985.00;;;33.30
11321;BMP180;5715;48.234;14.320;2022-08-19T10:37:36;97977.00;;;33.80
11321;BMP180;5715;48.234;14.320;2022-08-19T10:40:43;97966.00;;;34.20
11321;BMP180;5715;48.234;14.320;2022-08-19T10:43:31;97947.00;;;34.40
11321;BMP180;5715;48.234;14.320;2022-08-19T10:46:20;97956.00;;;34.90
11321;BMP180;5715;48.234;14.320;2022-08-19T10:49:10;97947.00;;;34.90
11321;BMP180;5715;48.234;14.320;2022-08-19T10:51:58;97940.00;;;34.90
11321;BMP180;5715;48.234;14.320;2022-08-19T10:55:09;97939.00;;;33.80
11321;BMP180;5715;48.234;14.320;2022-08-19T10:58:19;97940.00;;;34.60
11321;BMP180;5715;48.234;14.320;2022-08-19T11:01:10;97939.00;;;33.70
11321;BMP180;5715;48.234;14.320;2022-08-19T11:04:02;97955.00;;;34.80
11321;BMP180;5715;48.234;14.320;2022-08-19T11:06:50;97958.00;;;34.90
11321;BMP180;5715;48.234;14.320;2022-08-19T11:09:42;97962.00;;;35.00
11321;BMP180;5715;48.234;14.320;2022-08-19T11:12:30;97962.00;;;35.20
11321;BMP180;5715;48.234;14.320;2022-08-19T11:15:17;97954.00;;;35.30
11321;BMP180;5715;48.234;14.320;2022-08-19T11:18:05;97945.00;;;35.40
11321;BMP180;5715;48.234;14.320;2022-08-19T11:21:31;97948.00;;;35.40
11321;BMP180;5715;48.234;14.320;2022-08-19T11:24:23;97949.00;;;36.20
11321;BMP180;5715;48.234;14.320;2022-08-19T11:27:11;97952.00;;;36.10
11321;BMP180;5715;48.234;14.320;2022-08-19T11:29:59;97951.00;;;35.80
11321;BMP180;5715;48.234;14.320;2022-08-19T11:32:47;97957.00;;;36.10
11321;BMP180;5715;48.234;14.320;2022-08-19T11:35:39;97940.00;;;36.10
11321;BMP180;5715;48.234;14.320;2022-08-19T11:38:27;97945.00;;;36.00
11321;BMP180;5715;48.234;14.320;2022-08-19T11:41:19;97952.00;;;36.20
11321;BMP180;5715;48.234;14.320;2022-08-19T11:44:07;97949.00;;;36.30
11321;BMP180;5715;48.234;14.320;2022-08-19T11:46:55;97952.00;;;36.40
11321;BMP180;5715;48.234;14.320;2022-08-19T11:49:47;97955.00;;;35.80
11321;BMP180;5715;48.234;14.320;2022-08-19T11:52:34;97963.00;;;36.10
11321;BMP180;5715;48.234;14.320;2022-08-19T11:55:22;97955.00;;;36.20
11321;BMP180;5715;48.234;14.320;2022-08-19T11:58:12;97951.00;;;36.70
11321;BMP180;5715;48.234;14.320;2022-08-19T12:01:08;97952.00;;;36.80
11321;BMP180;5715;48.234;14.320;2022-08-19T12:03:58;97957.00;;;36.60
11321;BMP180;5715;48.234;14.320;2022-08-19T12:06:46;97950.00;;;36.80
11321;BMP180;5715;48.234;14.320;2022-08-19T12:09:33;97946.00;;;36.60
11321;BMP180;5715;48.234;14.320;2022-08-19T12:12:21;97950.00;;;36.20
11321;BMP180;5715;48.234;14.320;2022-08-19T12:15:11;97940.00;;;36.30
11321;BMP180;5715;48.234;14.320;2022-08-19T12:17:59;97940.00;;;35.90
11321;BMP180;5715;48.234;14.320;2022-08-19T12:20:46;97916.00;;;36.40
11321;BMP180;5715;48.234;14.320;2022-08-19T12:23:34;97903.00;;;36.50
11321;BMP180;5715;48.234;14.320;2022-08-19T12:26:27;97893.00;;;36.70
11321;BMP180;5715;48.234;14.320;2022-08-19T12:29:14;97899.00;;;36.30
11321;BMP180;5715;48.234;14.320;2022-08-19T12:32:09;97907.00;;;36.20
11321;BMP180;5715;48.234;14.320;2022-08-19T12:34:58;97912.00;;;35.60
11321;BMP180;5715;48.234;14.320;2022-08-19T12:37:47;97940.00;;;35.80
11321;BMP180;5715;48.234;14.320;2022-08-19T12:40:46;97927.00;;;35.50
11321;BMP180;5715;48.234;14.320;2022-08-19T12:43:35;97917.00;;;35.50
11321;BMP180;5715;48.234;14.320;2022-08-19T12:46:23;97893.00;;;35.90
11321;BMP180;5715;48.234;14.320;2022-08-19T12:49:12;97895.00;;;35.80
11321;BMP180;5715;48.234;14.320;2022-08-19T12:52:20;97920.00;;;36.00
11321;BMP180;5715;48.234;14.320;2022-08-19T12:55:10;97930.00;;;36.20
11321;BMP180;5715;48.234;14.320;2022-08-19T12:57:58;97918.00;;;35.90
11321;BMP180;5715;48.234;14.320;2022-08-19T13:00:48;97904.00;;;36.60
11321;BMP180;5715;48.234;14.320;2022-08-19T13:03:37;97896.00;;;37.10
11321;BMP180;5715;48.234;14.320;2022-08-19T13:06:27;97898.00;;;37.00
11321;BMP180;5715;48.234;14.320;2022-08-19T13:09:14;97897.00;;;37.30
11321;BMP180;5715;48.234;14.320;2022-08-19T13:12:03;97907.00;;;36.60
11321;BMP180;5715;48.234;14.320;2022-08-19T13:14:55;97917.00;;;37.00
11321;BMP180;5715;48.234;14.320;2022-08-19T13:17:43;97921.00;;;36.90
11321;BMP180;5715;48.234;14.320;2022-08-19T13:20:31;97908.00;;;36.60
11321;BMP180;5715;48.234;14.320;2022-08-19T13:23:18;97902.00;;;36.30
11321;BMP180;5715;48.234;14.320;2022-08-19T13:26:08;97897.00;;;36.00
11321;BMP180;5715;48.234;14.320;2022-08-19T13:28:56;97900.00;;;35.20
11321;BMP180;5715;48.234;14.320;2022-08-19T13:32:03;97907.00;;;36.10
11321;BMP180;5715;48.234;14.320;2022-08-19T13:35:09;97912.00;;;36.10
11321;BMP180;5715;48.234;14.320;2022-08-19T13:38:02;97906.00;;;36.60
11321;BMP180;5715;48.234;14.320;2022-08-19T13:41:05;97894.00;;;36.80
11321;BMP180;5715;48.234;14.320;2022-08-19T13:43:58;97891.00;;;36.60
11321;BMP180;5715;48.234;14.320;2022-08-19T13:46:48;97876.00;;;36.20
11321;BMP180;5715;48.234;14.320;2022-08-19T13:49:40;97872.00;;;36.30
11321;BMP180;5715;48.234;14.320;2022-08-19T13:52:27;97862.00;;;36.00
11321;BMP180;5715;48.234;14.320;2022-08-19T13:55:15;97857.00;;;36.60
11321;BMP180;5715;48.234;14.320;2022-08-19T13:58:11;97863.00;;;37.20
11321;BMP180;5715;48.234;14.320;2022-08-19T14:00:59;97863.00;;;36.60
11321;BMP180;5715;48.234;14.320;2022-08-19T14:03:47;97861.00;;;36.40
11321;BMP180;5715;48.234;14.320;2022-08-19T14:06:35;97863.00;;;36.60
11321;BMP180;5715;48.234;14.320;2022-08-19T14:09:23;97855.00;;;36.70
11321;BMP180;5715;48.234;14.320;2022-08-19T14:12:10;97846.00;;;36.80
11321;BMP180;5715;48.234;14.320;2022-08-19T14:14:59;97844.00;;;36.90
11321;BMP180;5715;48.234;14.320;2022-08-19T14:17:46;97844.00;;;37.10
11321;BMP180;5715;48.234;14.320;2022-08-19T14:20:36;97847.00;;;37.20
11321;BMP180;5715;48.234;14.320;2022-08-19T14:23:24;97841.00;;;36.10
11321;BMP180;5715;48.234;14.320;2022-08-19T14:26:15;97845.00;;;36.60
11321;BMP180;5715;48.234;14.320;2022-08-19T14:29:03;97844.00;;;37.10
11321;BMP180;5715;48.234;14.320;2022-08-19T14:31:51;97835.00;;;37.30
11321;BMP180;5715;48.234;14.320;2022-08-19T14:34:39;97846.00;;;36.80
11321;BMP180;5715;48.234;14.320;2022-08-19T14:37:27;97860.00;;;36.80
11321;BMP180;5715;48.234;14.320;2022-08-19T14:40:18;97860.00;;;36.80
11321;BMP180;5715;48.234;14.320;2022-08-19T14:43:12;97866.00;;;36.80
11321;BMP180;5715;48.234;14.320;2022-08-19T14:46:04;97867.00;;;36.90
11321;BMP180;5715;48.234;14.320;2022-08-19T14:48:52;97862.00;;;36.70
11321;BMP180;5715;48.234;14.320;2022-08-19T14:51:40;97852.00;;;36.10
11321;BMP180;5715;48.234;14.320;2022-08-19T14:54:28;97844.00;;;36.10
11321;BMP180;5715;48.234;14.320;2022-08-19T14:57:16;97844.00;;;35.30
11321;BMP180;5715;48.234;14.320;2022-08-19T15:00:05;97846.00;;;35.10
11321;BMP180;5715;48.234;14.320;2022-08-19T15:02:53;97838.00;;;35.10
11321;BMP180;5715;48.234;14.320;2022-08-19T15:05:44;97832.00;;;35.00
11321;BMP180;5715;48.234;14.320;2022-08-19T15:08:34;97825.00;;;35.00
11321;BMP180;5715;48.234;14.320;2022-08-19T15:11:26;97827.00;;;35.00
11321;BMP180;5715;48.234;14.320;2022-08-19T15:14:15;97834.00;;;34.60
11321;BMP180;5715;48.234;14.320;2022-08-19T15:17:05;97842.00;;;34.10
11321;BMP180;5715;48.234;14.320;2022-08-19T15:19:52;97847.00;;;33.90
11321;BMP180;5715;48.234;14.320;2022-08-19T15:22:40;97866.00;;;33.60
11321;BMP180;5715;48.234;14.320;2022-08-19T15:25:29;97904.00;;;33.40
11321;BMP180;5715;48.234;14.320;2022-08-19T15:28:17;97943.00;;;30.90
11321;BMP180;5715;48.234;14.320;2022-08-19T15:31:05;97951.00;;;30.30
11321;BMP180;5715;48.234;14.320;2022-08-19T15:33:53;97946.00;;;29.40
11321;BMP180;5715;48.234;14.320;2022-08-19T15:36:43;97970.00;;;28.30
11321;BMP180;5715;48.234;14.320;2022-08-19T15:39:31;97968.00;;;27.70
11321;BMP180;5715;48.234;14.320;2022-08-19T15:42:19;97980.00;;;26.50
11321;BMP180;5715;48.234;14.320;2022-08-19T15:45:19;97986.00;;;26.50
11321;BMP180;5715;48.234;14.320;2022-08-19T15:48:07;97990.00;;;26.30
11321;BMP180;5715;48.234;14.320;2022-08-19T15:50:55;98003.00;;;25.80
11321;BMP180;5715;48.234;14.320;2022-08-19T15:53:43;98009.00;;;25.60
11321;BMP180;5715;48.234;14.320;2022-08-19T15:56:30;98014.00;;;25.20
11321;BMP180;5715;48.234;14.320;2022-08-19T15:59:44;98018.00;;;25.00
11321;BMP180;5715;48.234;14.320;2022-08-19T16:02:51;98018.00;;;25.40
11321;BMP180;5715;48.234;14.320;2022-08-19T16:06:17;98028.00;;;25.10
11321;BMP180;5715;48.234;14.320;2022-08-19T16:09:17;98055.00;;;25.00
11321;BMP180;5715;48.234;14.320;2022-08-19T16:12:12;98064.00;;;25.60
11321;BMP180;5715;48.234;14.320;2022-08-19T16:15:00;98051.00;;;25.30
11321;BMP180;5715;48.234;14.320;2022-08-19T16:17:48;98044.00;;;25.80
11321;BMP180;5715;48.234;14.320;2022-08-19T16:20:43;98036.00;;;25.80
11321;BMP180;5715;48.234;14.320;2022-08-19T16:23:34;98013.00;;;25.80
11321;BMP180;5715;48.234;14.320;2022-08-19T16:26:22;97995.00;;;24.60
11321;BMP180;5715;48.234;14.320;2022-08-19T16:29:17;97999.00;;;24.20
11321;BMP180;5715;48.234;14.320;2022-08-19T16:32:20;98010.00;;;24.50
11321;BMP180;5715;48.234;14.320;2022-08-19T16:35:08;98005.00;;;24.40
11321;BMP180;5715;48.234;14.320;2022-08-19T16:37:56;98001.00;;;24.70